createdAt,value
2018-04-12T00:00:00.934Z,11.42
2018-04-12T02:58:41.355Z,11.27
2018-04-12T03:01:16.821Z,11.10
2018-04-12T03:03:51.906Z,11.00
2018-04-12T03:06:27.300Z,10.98
2018-04-12T03:09:02.275Z,10.95
2018-04-12T03:11:37.174Z,11.00
2018-04-12T03:14:12.173Z,11.05
2018-04-12T03:16:47.257Z,11.14
2018-04-12T03:19:22.198Z,11.29
2018-04-12T03:21:56.623Z,11.28
2018-04-12T03:24:31.667Z,11.28
2018-04-12T03:27:06.545Z,11.25
2018-04-12T03:29:41.606Z,11.17
2018-04-12T03:32:16.613Z,11.07
2018-04-12T03:34:51.533Z,11.14
2018-04-12T03:37:26.241Z,11.13
2018-04-12T03:40:01.219Z,11.12
2018-04-12T03:42:35.916Z,10.94
2018-04-12T03:45:10.820Z,10.85
2018-04-12T03:47:45.625Z,10.81
2018-04-12T03:50:20.393Z,10.76
2018-04-12T03:52:55.285Z,10.84
2018-04-12T03:55:31.639Z,10.89
2018-04-12T03:58:06.294Z,10.87
2018-04-12T04:00:41.361Z,10.90
2018-04-12T04:03:16.489Z,10.87
2018-04-12T04:05:51.412Z,10.89
2018-04-12T04:08:26.490Z,10.81
2018-04-12T04:11:01.622Z,10.72
2018-04-12T04:13:36.865Z,10.67
2018-04-12T04:16:23.434Z,10.72
2018-04-12T04:19:09.701Z,10.85
2018-04-12T04:21:44.769Z,11.00
2018-04-12T04:24:19.532Z,10.94
2018-04-12T04:26:54.461Z,10.89
2018-04-12T04:29:29.448Z,10.90
2018-04-12T04:32:04.447Z,10.93
2018-04-12T04:34:39.667Z,10.96
2018-04-12T04:37:15.423Z,10.86
2018-04-12T04:39:50.340Z,10.77
2018-04-12T04:42:25.846Z,10.74
2018-04-12T04:45:00.609Z,10.68
2018-04-12T04:47:35.468Z,10.72
2018-04-12T04:50:10.606Z,10.72
2018-04-12T04:52:45.784Z,10.52
2018-04-12T04:55:20.485Z,10.55
2018-04-12T04:57:55.005Z,10.61
2018-04-12T05:00:29.909Z,10.54
2018-04-12T05:03:04.853Z,10.51
2018-04-12T05:05:39.740Z,10.50
2018-04-12T05:08:14.713Z,10.42
2018-04-12T05:10:49.625Z,10.40
2018-04-12T05:13:24.632Z,10.26
2018-04-12T05:15:59.622Z,10.16
2018-04-12T05:18:35.001Z,10.15
2018-04-12T05:21:09.681Z,10.15
2018-04-12T05:23:44.893Z,10.18
2018-04-12T05:26:19.509Z,10.14
2018-04-12T05:28:54.633Z,10.11
2018-04-12T05:31:29.670Z,10.13
2018-04-12T05:34:04.342Z,10.03
2018-04-12T05:36:39.645Z,9.92
2018-04-12T05:39:14.714Z,9.89
2018-04-12T05:41:50.041Z,9.94
2018-04-12T05:44:24.721Z,10.00
2018-04-12T05:46:59.707Z,10.00
2018-04-12T05:49:34.810Z,9.96
2018-04-12T05:52:09.048Z,10.00
2018-04-12T05:54:44.077Z,10.02
2018-04-12T05:57:18.982Z,9.80
2018-04-12T05:59:53.468Z,9.79
2018-04-12T06:02:28.459Z,9.82
2018-04-12T06:05:03.440Z,9.71
2018-04-12T06:07:38.833Z,9.78
2018-04-12T06:10:13.405Z,9.76
2018-04-12T06:12:48.484Z,9.67
2018-04-12T06:15:23.142Z,9.69
2018-04-12T06:17:57.941Z,9.67
2018-04-12T06:20:32.366Z,9.68
2018-04-12T06:23:07.689Z,9.64
2018-04-12T06:25:43.081Z,9.56
2018-04-12T06:28:17.941Z,9.59
2018-04-12T06:30:52.941Z,9.52
2018-04-12T06:33:28.013Z,9.58
2018-04-12T06:36:03.074Z,9.57
2018-04-12T06:38:38.288Z,9.61
2018-04-12T06:41:13.038Z,9.61
2018-04-12T06:43:47.966Z,9.61
2018-04-12T06:46:23.009Z,9.69
2018-04-12T06:48:57.985Z,9.70
2018-04-12T06:51:32.485Z,9.78
2018-04-12T06:54:07.338Z,9.80
2018-04-12T06:56:42.417Z,9.78
2018-04-12T06:59:17.407Z,9.71
2018-04-12T07:01:52.421Z,9.80
2018-04-12T07:04:27.402Z,9.72
2018-04-12T07:07:02.253Z,9.76
2018-04-12T07:09:37.153Z,9.82
2018-04-12T07:12:11.621Z,9.84
2018-04-12T07:14:46.601Z,9.84
2018-04-12T07:17:21.481Z,9.64
2018-04-12T07:19:56.507Z,9.77
2018-04-12T07:22:32.449Z,9.80
2018-04-12T07:25:07.438Z,9.73
2018-04-12T07:27:42.129Z,9.82
2018-04-12T07:30:17.218Z,9.81
2018-04-12T07:32:51.709Z,9.81
2018-04-12T07:35:26.504Z,9.84
2018-04-12T07:38:01.192Z,9.92
2018-04-12T07:40:36.161Z,9.96
2018-04-12T07:43:11.366Z,9.94
2018-04-12T07:45:46.515Z,9.98
2018-04-12T07:48:21.285Z,9.93
2018-04-12T07:50:55.673Z,9.84
2018-04-12T07:53:30.677Z,9.73
2018-04-12T07:56:05.633Z,9.63
2018-04-12T07:58:40.538Z,9.63
2018-04-12T08:01:16.100Z,9.54
2018-04-12T08:03:50.868Z,9.56
2018-04-12T08:06:25.775Z,9.71
2018-04-12T08:09:00.774Z,9.86
2018-04-12T08:11:35.572Z,9.78
2018-04-12T08:14:10.386Z,9.77
2018-04-12T08:16:45.285Z,9.83
2018-04-12T08:19:20.240Z,9.87
2018-04-12T08:21:54.991Z,9.85
2018-04-12T08:24:29.596Z,9.92
2018-04-12T08:27:04.162Z,10.10
2018-04-12T08:29:39.533Z,10.22
2018-04-12T08:32:14.337Z,10.35
2018-04-12T08:34:49.244Z,10.43
2018-04-12T08:37:24.381Z,10.43
2018-04-12T08:39:59.278Z,10.40
2018-04-12T08:42:34.452Z,10.41
2018-04-12T08:45:08.838Z,10.50
2018-04-12T08:47:43.873Z,10.46
2018-04-12T08:50:19.254Z,10.51
2018-04-12T08:52:54.297Z,10.60
2018-04-12T08:55:29.345Z,10.62
2018-04-12T08:58:04.323Z,10.65
2018-04-12T09:00:39.445Z,10.77
2018-04-12T09:03:14.329Z,10.86
2018-04-12T09:05:48.910Z,10.96
2018-04-12T09:08:23.786Z,10.90
2018-04-12T09:10:58.693Z,10.86
2018-04-12T09:13:33.884Z,10.86
2018-04-12T09:16:08.678Z,10.93
2018-04-12T09:18:43.474Z,10.96
2018-04-12T09:21:18.498Z,10.93
2018-04-12T09:23:53.509Z,10.95
2018-04-12T09:26:28.469Z,10.99
2018-04-12T09:29:03.336Z,10.96
2018-04-12T09:31:37.945Z,10.88
2018-04-12T09:34:12.719Z,10.95
2018-04-12T09:36:47.720Z,11.01
2018-04-12T09:39:23.551Z,11.10
2018-04-12T09:41:57.925Z,11.11
2018-04-12T09:44:32.973Z,11.19
2018-04-12T09:47:07.774Z,11.27
2018-04-12T09:49:42.682Z,11.40
2018-04-12T09:52:17.469Z,11.42
2018-04-12T09:54:52.118Z,11.48
2018-04-12T09:57:27.683Z,11.60
2018-04-12T10:00:02.532Z,11.48
2018-04-12T10:02:42.973Z,11.57
2018-04-12T10:05:30.338Z,11.68
2018-04-12T10:08:10.650Z,11.68
2018-04-12T10:10:45.742Z,11.69
2018-04-12T10:13:20.853Z,11.68
2018-04-12T10:15:55.865Z,11.65
2018-04-12T10:18:31.151Z,11.74
2018-04-12T10:21:06.097Z,11.80
2018-04-12T10:23:40.817Z,11.77
2018-04-12T10:26:15.937Z,11.79
2018-04-12T10:28:51.531Z,11.71
2018-04-12T10:31:25.790Z,11.74
2018-04-12T10:34:00.977Z,11.69
2018-04-12T10:36:36.162Z,11.69
2018-04-12T10:39:10.785Z,11.71
2018-04-12T10:41:45.723Z,11.63
2018-04-12T10:44:21.331Z,11.50
2018-04-12T10:46:55.986Z,11.56
2018-04-12T10:49:30.621Z,11.67
2018-04-12T10:52:05.282Z,11.73
2018-04-12T10:54:40.760Z,11.83
2018-04-12T10:57:14.922Z,11.93
2018-04-12T10:59:49.530Z,12.03
2018-04-12T11:02:24.718Z,12.03
2018-04-12T11:04:59.724Z,12.00
2018-04-12T11:07:35.209Z,12.06
2018-04-12T11:10:09.598Z,12.09
2018-04-12T11:12:44.889Z,12.12
2018-04-12T11:15:19.646Z,12.27
2018-04-12T11:17:54.782Z,12.18
2018-04-12T11:20:30.281Z,12.24
2018-04-12T11:23:05.433Z,12.30
2018-04-12T11:25:40.738Z,12.47
2018-04-12T11:28:15.849Z,12.51
2018-04-12T11:30:51.110Z,12.52
2018-04-12T11:33:26.184Z,12.43
2018-04-12T11:36:01.182Z,12.46
2018-04-12T11:38:36.201Z,12.63
2018-04-12T11:41:11.301Z,12.71
2018-04-12T11:43:46.285Z,12.82
2018-04-12T11:46:21.276Z,12.89
2018-04-12T11:48:55.748Z,12.92
2018-04-12T11:51:30.988Z,12.97
2018-04-12T11:54:05.979Z,12.95
2018-04-12T11:56:40.470Z,12.87
2018-04-12T11:59:15.957Z,12.96
2018-04-12T12:01:50.946Z,13.04
2018-04-12T12:04:25.922Z,13.14
2018-04-12T12:07:00.932Z,13.26
2018-04-12T12:09:36.985Z,13.29
2018-04-12T12:12:11.300Z,13.40
2018-04-12T12:14:46.261Z,13.56
2018-04-12T12:17:21.265Z,13.66
2018-04-12T12:19:56.050Z,13.79
2018-04-12T12:22:31.002Z,13.90
2018-04-12T12:25:05.965Z,14.03
2018-04-12T12:27:41.303Z,13.94
2018-04-12T12:30:15.981Z,13.98
2018-04-12T12:32:50.659Z,14.02
2018-04-12T12:35:26.081Z,14.20
2018-04-12T12:38:01.000Z,14.27
2018-04-12T12:40:35.974Z,14.34
2018-04-12T12:43:11.029Z,14.49
2018-04-12T12:45:46.316Z,14.57
2018-04-12T12:48:21.157Z,14.63
2018-04-12T12:50:56.268Z,14.70
2018-04-12T12:53:31.366Z,14.84
2018-04-12T12:56:06.292Z,14.90
2018-04-12T12:58:41.333Z,15.06
2018-04-12T13:01:16.046Z,15.03
2018-04-12T13:03:51.409Z,15.18
2018-04-12T13:06:26.542Z,15.36
2018-04-12T13:09:01.493Z,15.55
2018-04-12T13:11:36.469Z,15.72
2018-04-12T13:14:11.464Z,15.82
2018-04-12T13:16:46.412Z,15.83
2018-04-12T13:19:21.341Z,15.91
2018-04-12T13:21:56.121Z,15.97
2018-04-12T13:24:31.094Z,16.04
2018-04-12T13:27:06.006Z,16.09
2018-04-12T13:29:41.077Z,16.12
2018-04-12T13:32:15.430Z,16.17
2018-04-12T13:34:50.381Z,16.36
2018-04-12T13:37:25.234Z,16.73
2018-04-12T13:40:00.329Z,17.07
2018-04-12T13:42:35.277Z,17.25
2018-04-12T13:45:10.557Z,17.19
2018-04-12T13:47:45.506Z,17.19
2018-04-12T13:50:20.433Z,17.14
2018-04-12T13:52:55.355Z,17.13
2018-04-12T13:55:30.646Z,17.35
2018-04-12T13:58:05.585Z,17.47
2018-04-12T14:00:40.530Z,17.51
2018-04-12T14:03:15.434Z,17.44
2018-04-12T14:05:50.413Z,17.49
2018-04-12T14:08:25.584Z,17.59
2018-04-12T14:11:00.566Z,17.69
2018-04-12T14:13:35.177Z,17.67
2018-04-12T14:16:10.281Z,17.76
2018-04-12T14:18:45.533Z,17.87
2018-04-12T14:21:20.838Z,17.98
2018-04-12T14:23:55.726Z,18.12
2018-04-12T14:26:30.683Z,18.22
2018-04-12T14:29:05.072Z,18.36
2018-04-12T14:31:40.481Z,18.42
2018-04-12T14:34:15.309Z,18.35
2018-04-12T14:36:50.577Z,18.26
2018-04-12T14:39:25.366Z,18.37
2018-04-12T14:42:00.053Z,18.39
2018-04-12T14:44:34.842Z,18.43
2018-04-12T14:47:09.467Z,18.51
2018-04-12T14:49:44.742Z,18.49
2018-04-12T14:52:19.566Z,18.47
2018-04-12T14:54:54.388Z,18.56
2018-04-12T14:57:29.589Z,18.55
2018-04-12T15:00:04.022Z,18.51
2018-04-12T15:02:39.746Z,18.44
2018-04-12T15:05:14.266Z,18.48
2018-04-12T15:07:49.650Z,18.61
2018-04-12T15:10:24.433Z,18.73
2018-04-12T15:12:59.422Z,18.83
2018-04-12T15:15:33.997Z,18.80
2018-04-12T15:18:09.502Z,18.76
2018-04-12T15:20:43.905Z,18.67
2018-04-12T15:23:18.905Z,18.63
2018-04-12T15:25:53.889Z,18.58
2018-04-12T15:28:28.973Z,18.60
2018-04-12T15:31:04.025Z,18.62
2018-04-12T15:33:39.105Z,18.62
2018-04-12T15:36:14.573Z,18.60
2018-04-12T15:38:49.124Z,18.61
2018-04-12T15:41:24.104Z,18.61
2018-04-12T15:43:59.006Z,18.66
2018-04-12T15:46:33.925Z,18.62
2018-04-12T15:49:08.945Z,18.61
2018-04-12T15:51:43.929Z,18.69
2018-04-12T15:54:18.947Z,18.82
2018-04-12T15:56:53.633Z,18.73
2018-04-12T15:59:28.473Z,18.64
2018-04-12T16:02:03.590Z,18.66
2018-04-12T16:04:38.772Z,18.69
2018-04-12T16:07:13.667Z,18.69
2018-04-12T16:09:48.804Z,18.66
2018-04-12T16:12:23.703Z,18.69
2018-04-12T16:14:58.657Z,18.74
2018-04-12T16:17:33.985Z,18.82
2018-04-12T16:20:08.562Z,18.84
2018-04-12T16:22:43.582Z,18.88
2018-04-12T16:25:18.595Z,18.94
2018-04-12T16:27:53.967Z,18.88
2018-04-12T16:30:28.637Z,18.83
2018-04-12T16:33:03.697Z,18.81
2018-04-12T16:35:39.198Z,18.84
2018-04-12T16:38:13.714Z,18.88
2018-04-12T16:40:48.904Z,18.91
2018-04-12T16:43:23.702Z,18.94
2018-04-12T16:45:58.498Z,18.94
2018-04-12T16:48:34.110Z,18.93
2018-04-12T16:51:09.095Z,19.01
2018-04-12T16:53:44.059Z,19.07
2018-04-12T16:56:18.721Z,19.10
2018-04-12T16:58:53.799Z,19.11
2018-04-12T17:01:28.325Z,19.13
2018-04-12T17:04:03.005Z,19.10
2018-04-12T17:06:38.409Z,19.09
2018-04-12T17:09:12.877Z,19.07
2018-04-12T17:11:48.165Z,19.02
2018-04-12T17:14:22.844Z,18.99
2018-04-12T17:16:57.701Z,18.95
2018-04-12T17:19:34.084Z,18.94
2018-04-12T17:22:08.681Z,18.96
2018-04-12T17:24:44.232Z,18.95
2018-04-12T17:27:19.033Z,18.94
2018-04-12T17:29:54.210Z,18.92
2018-04-12T17:32:29.005Z,18.90
2018-04-12T17:35:03.925Z,18.90
2018-04-12T17:37:38.189Z,18.92
2018-04-12T17:40:13.389Z,18.91
2018-04-12T17:42:48.561Z,18.90
2018-04-12T17:45:23.968Z,18.88
2018-04-12T17:47:59.203Z,18.82
2018-04-12T17:50:34.490Z,18.82
2018-04-12T17:53:10.105Z,18.78
2018-04-12T17:55:45.293Z,18.77
2018-04-12T17:58:20.041Z,18.79
2018-04-12T18:00:55.034Z,18.81
2018-04-12T18:03:30.045Z,18.78
2018-04-12T18:06:04.574Z,18.74
2018-04-12T18:08:39.666Z,18.70
2018-04-12T18:11:14.289Z,18.67
2018-04-12T18:13:50.132Z,18.65
2018-04-12T18:16:25.219Z,18.64
2018-04-12T18:19:00.094Z,18.62
2018-04-12T18:21:35.430Z,18.59
2018-04-12T18:24:11.179Z,18.57
2018-04-12T18:26:46.377Z,18.59
2018-04-12T18:29:21.270Z,18.58
2018-04-12T18:31:56.221Z,18.56
2018-04-12T18:34:31.394Z,18.53
2018-04-12T18:37:06.325Z,18.48
2018-04-12T18:39:41.381Z,18.45
2018-04-12T18:42:16.314Z,18.40
2018-04-12T18:44:51.236Z,18.38
2018-04-12T18:47:26.452Z,18.37
2018-04-12T18:50:01.454Z,18.34
2018-04-12T18:52:36.552Z,18.31
2018-04-12T18:55:12.167Z,18.27
2018-04-12T18:57:47.421Z,18.24
2018-04-12T19:00:22.781Z,18.18
2018-04-12T19:02:57.689Z,18.14
2018-04-12T19:05:32.692Z,18.11
2018-04-12T19:08:07.597Z,18.08
2018-04-12T19:10:42.510Z,18.05
2018-04-12T19:13:17.390Z,18.04
2018-04-12T19:15:52.300Z,18.01
2018-04-12T19:18:26.893Z,17.96
2018-04-12T19:21:01.612Z,17.91
2018-04-12T19:23:36.475Z,17.88
2018-04-12T19:26:11.361Z,17.85
2018-04-12T19:28:46.441Z,17.81
2018-04-12T19:31:21.365Z,17.78
2018-04-12T19:33:56.352Z,17.75
2018-04-12T19:36:31.285Z,17.70
2018-04-12T19:39:05.729Z,17.63
2018-04-12T19:41:41.273Z,17.56
2018-04-12T19:44:16.543Z,17.51
2018-04-12T19:46:51.385Z,17.48
2018-04-12T19:49:26.022Z,17.47
2018-04-12T19:52:01.374Z,17.44
2018-04-12T19:54:36.908Z,17.41
2018-04-12T19:57:11.729Z,17.39
2018-04-12T19:59:46.783Z,17.39
2018-04-12T20:02:21.689Z,17.38
2018-04-12T20:04:56.353Z,17.39
2018-04-12T20:07:31.470Z,17.37
2018-04-12T20:10:05.153Z,17.35
2018-04-12T20:12:40.676Z,17.33
2018-04-12T20:15:15.472Z,17.31
2018-04-12T20:17:50.650Z,17.28
2018-04-12T20:20:26.393Z,17.25
2018-04-12T20:23:00.900Z,17.24
2018-04-12T20:25:36.058Z,17.22
2018-04-12T20:28:10.732Z,17.20
2018-04-12T20:30:46.358Z,17.18
2018-04-12T20:33:20.593Z,17.17
2018-04-12T20:35:55.369Z,17.16
2018-04-12T20:38:30.510Z,17.15
2018-04-12T20:41:05.420Z,17.13
2018-04-12T20:43:39.912Z,17.12
2018-04-12T20:46:14.929Z,17.10
2018-04-12T20:48:50.041Z,17.11
2018-04-12T20:51:25.558Z,17.12
2018-04-12T20:54:00.540Z,17.06
2018-04-12T20:56:35.627Z,16.99
2018-04-12T20:59:10.546Z,16.98
2018-04-12T21:01:45.449Z,16.98
2018-04-12T21:04:20.046Z,16.97
2018-04-12T21:06:55.325Z,17.00
2018-04-12T21:09:30.030Z,16.98
2018-04-12T21:12:04.693Z,16.93
2018-04-12T21:14:39.858Z,16.89
2018-04-12T21:17:14.568Z,16.89
2018-04-12T21:19:49.644Z,16.87
2018-04-12T21:22:24.533Z,16.84
2018-04-12T21:24:59.129Z,16.81
2018-04-12T21:27:34.885Z,16.78
2018-04-12T21:30:09.660Z,16.74
2018-04-12T21:32:44.806Z,16.71
2018-04-12T21:35:19.282Z,16.67
2018-04-12T21:37:54.185Z,16.65
2018-04-12T21:40:28.986Z,16.67
2018-04-12T21:43:03.778Z,16.67
2018-04-12T21:45:38.856Z,16.67
2018-04-12T21:48:14.071Z,16.71
2018-04-12T21:50:49.866Z,16.72
2018-04-12T21:53:25.149Z,16.68
2018-04-12T21:55:59.608Z,16.68
2018-04-12T21:58:35.105Z,16.68
2018-04-12T22:01:09.293Z,16.64
2018-04-12T22:03:44.074Z,16.61
2018-04-12T22:06:18.950Z,16.63
2018-04-12T22:08:54.521Z,16.66
2018-04-12T22:11:29.795Z,16.68
2018-04-12T22:14:04.765Z,16.70
2018-04-12T22:16:39.533Z,16.71
2018-04-12T22:19:14.609Z,16.70
2018-04-12T22:21:49.202Z,16.73
2018-04-12T22:24:24.189Z,16.77
2018-04-12T22:26:58.955Z,16.74
2018-04-12T22:29:34.989Z,16.71
2018-04-12T22:32:09.891Z,16.70
2018-04-12T22:34:44.789Z,16.68
2018-04-12T22:37:20.197Z,16.66
2018-04-12T22:39:54.900Z,16.61
2018-04-12T22:42:29.726Z,16.68
2018-04-12T22:45:04.402Z,16.71
2018-04-12T22:47:39.291Z,16.73
2018-04-12T22:50:14.193Z,16.75
2018-04-12T22:52:49.454Z,16.81
2018-04-12T22:55:24.265Z,16.84
2018-04-12T22:57:59.050Z,16.79
2018-04-12T23:00:34.900Z,16.76
2018-04-12T23:03:09.777Z,16.81
2018-04-12T23:05:45.988Z,16.89
2018-04-12T23:08:21.281Z,16.85
2018-04-12T23:10:56.183Z,16.74
2018-04-12T23:13:31.174Z,16.69
2018-04-12T23:16:06.152Z,16.67
2018-04-12T23:18:41.310Z,16.65
2018-04-12T23:21:16.062Z,16.61
2018-04-12T23:23:51.133Z,16.61
2018-04-12T23:26:26.191Z,16.57
2018-04-12T23:29:01.184Z,16.53
2018-04-12T23:31:36.381Z,16.47
2018-04-12T23:34:11.106Z,16.46
2018-04-12T23:36:46.313Z,16.33
2018-04-12T23:39:21.120Z,16.28
2018-04-12T23:41:56.078Z,16.26
2018-04-12T23:44:31.485Z,16.21
2018-04-12T23:47:06.206Z,16.20
2018-04-12T23:49:41.209Z,16.20
2018-04-12T23:52:15.714Z,16.23
2018-04-12T23:54:50.309Z,16.30
2018-04-12T23:57:25.524Z,16.34
